PAGA

Edward G Pitka Sr Airport

Galena, Alaska, USA
PAGA 171138Z 1712/1812 23011G20KT P6SM BKN090 FM171800 24018G25KT P6SM FEW035 SCT050 BKN100 FM181040 23015KT P6SM SKC
Issued Valid From Valid To
Aug-17 @ 11:38 UTC
(3 hours ago)
Aug-17 @ 12:00 UTC
(3 hours ago)
Aug-18 @ 12:00 UTC
(in 21 hours)
Aug-17 @ 12:00 to Aug-17 @ 18:00
PAGA 171138Z 1712/1812 23011G20KT P6SM BKN090
Wind Visibility Clouds
230° at 11 knots
 Gusting to 20 knots
Greater than 6 miles
  • Broken at 9,000' AGL
From Aug-17 @ 18:00 to Aug-18 @ 10:40
FM171800 24018G25KT P6SM FEW035 SCT050 BKN100
Wind Visibility Clouds
240° at 18 knots
 Gusting to 25 knots
Greater than 6 miles
  • Few at 3,500' AGL
  • Scattered at 5,000' AGL
  • Broken at 10,000' AGL
From Aug-18 @ 10:40 to Aug-18 @ 12:00
FM181040 23015KT P6SM SKC
Wind Visibility Clouds
230° at 15 knots Greater than 6 miles
  • Clear skies
PAGA 171138Z 1712/1812 23011G20KT P6SM BKN090 FM171800 24018G25KT P6SM FEW035 SCT050 BKN100 FM181040 23015KT P6SM SKC
Issued Aug-17 @ 11:38 UTC
(3 hours ago)
Valid From Aug-17 @ 12:00 UTC
(3 hours ago)
Valid To Aug-18 @ 12:00 UTC
(in 21 hours)
Aug-17 @ 12:00 - Aug-17 @ 18:00
Wind Visibility
230° at 11 knots
 Gusting to 20 knots
Greater than 6 miles
Clouds
  • Broken at 9,000' AGL
From Aug-17 @ 18:00 - Aug-18 @ 10:40
Wind Visibility
240° at 18 knots
 Gusting to 25 knots
Greater than 6 miles
Clouds
  • Few at 3,500' AGL
  • Scattered at 5,000' AGL
  • Broken at 10,000' AGL
From Aug-18 @ 10:40 - Aug-18 @ 12:00
Wind Visibility
230° at 15 knots Greater than 6 miles
Clouds
  • Clear skies